Time;durP1;ratioP1;P1;durP2;ratioP2;P2;SDS_P1;SDS_P2;PMS_P1;PMS_P2;Temp;Humidity;BMP_temperature;BMP_pressure;BME280_temperature;BME280_humidity;BME280_pressure;Samples;Min_cycle;Max_cycle;Signal;HPM_P1;HPM_P2
2023/01/22 00:00:35;;;;;;;27.30;13.90;;;;;;;;;;5090996;28;20293;-75
2023/01/22 00:03:04;;;;;;;29.17;14.50;;;;;;;;;;5091548;28;20277;-77
2023/01/22 00:05:31;;;;;;;24.90;13.37;;;;;;;;;;5091049;28;20319;-76
2023/01/22 00:07:58;;;;;;;27.43;13.77;;;;;;;;;;5090307;28;20225;-76
2023/01/22 00:10:26;;;;;;;27.17;14.57;;;;;;;;;;5090316;28;20278;-77
2023/01/22 00:12:53;;;;;;;25.70;14.37;;;;;;;;;;5071128;28;20276;-77
2023/01/22 00:15:20;;;;;;;27.30;14.17;;;;;;;;;;5070690;28;20229;-76
2023/01/22 00:17:47;;;;;;;27.00;14.50;;;;;;;;;;5086063;28;20288;-77
2023/01/22 00:20:16;;;;;;;27.40;14.57;;;;;;;;;;5090977;28;20275;-76
2023/01/22 00:22:43;;;;;;;28.23;13.93;;;;;;;;;;5090578;28;20224;-77
2023/01/22 00:25:12;;;;;;;24.83;13.90;;;;;;;;;;5093923;28;20228;-76
2023/01/22 00:27:40;;;;;;;27.80;14.07;;;;;;;;;;5094366;28;20641;-76
2023/01/22 00:30:08;;;;;;;27.17;13.93;;;;;;;;;;5094681;28;20202;-76
2023/01/22 00:32:35;;;;;;;31.07;14.60;;;;;;;;;;5093933;28;20288;-77
2023/01/22 00:35:02;;;;;;;24.67;13.80;;;;;;;;;;5094657;28;20294;-76
2023/01/22 00:37:32;;;;;;;27.50;14.63;;;;;;;;;;5093967;28;20292;-77
2023/01/22 00:39:59;;;;;;;26.00;14.27;;;;;;;;;;5094376;28;20232;-77
2023/01/22 00:42:26;;;;;;;28.40;14.73;;;;;;;;;;5094045;28;20234;-77
2023/01/22 00:44:53;;;;;;;28.53;14.53;;;;;;;;;;5094066;28;20317;-76
2023/01/22 00:47:20;;;;;;;28.70;15.77;;;;;;;;;;5094166;28;20294;-77
2023/01/22 00:49:47;;;;;;;26.60;14.73;;;;;;;;;;5093758;28;20284;-76
2023/01/22 00:52:15;;;;;;;29.93;15.57;;;;;;;;;;5094461;28;20627;-76
2023/01/22 00:54:44;;;;;;;27.50;15.33;;;;;;;;;;5094290;28;20252;-78
2023/01/22 00:57:11;;;;;;;29.97;15.37;;;;;;;;;;5093939;28;20686;-76
2023/01/22 00:59:38;;;;;;;28.07;14.97;;;;;;;;;;5093617;28;20231;-76
2023/01/22 01:02:06;;;;;;;27.37;14.80;;;;;;;;;;5094282;28;20288;-76
2023/01/22 01:04:33;;;;;;;27.97;14.50;;;;;;;;;;5092950;28;20608;-76
2023/01/22 01:07:00;;;;;;;25.13;14.03;;;;;;;;;;5094052;28;20241;-76
2023/01/22 01:09:27;;;;;;;25.47;14.10;;;;;;;;;;5093524;28;20259;-76
2023/01/22 01:11:56;;;;;;;27.60;14.87;;;;;;;;;;5093665;28;20228;-76
2023/01/22 01:14:23;;;;;;;29.53;15.43;;;;;;;;;;5093536;28;20748;-77
2023/01/22 01:16:50;;;;;;;24.93;14.27;;;;;;;;;;5093234;28;20197;-77
2023/01/22 01:19:19;;;;;;;24.07;14.40;;;;;;;;;;5093114;28;20224;-76
2023/01/22 01:21:46;;;;;;;26.17;14.23;;;;;;;;;;5093717;28;20196;-77
2023/01/22 01:24:14;;;;;;;24.73;14.07;;;;;;;;;;5093834;28;20298;-77
2023/01/22 01:26:41;;;;;;;29.03;15.20;;;;;;;;;;5093129;28;20243;-76
2023/01/22 01:29:11;;;;;;;28.47;14.93;;;;;;;;;;5093346;28;20196;-76
2023/01/22 01:31:39;;;;;;;24.70;13.73;;;;;;;;;;5093454;28;20300;-76
2023/01/22 01:34:06;;;;;;;26.63;14.50;;;;;;;;;;5093255;28;20294;-76
2023/01/22 01:36:33;;;;;;;29.23;14.83;;;;;;;;;;5092607;28;20290;-76
2023/01/22 01:39:00;;;;;;;28.00;14.93;;;;;;;;;;5093249;28;20224;-76
2023/01/22 01:41:27;;;;;;;31.63;15.30;;;;;;;;;;5093539;28;20747;-76
2023/01/22 01:44:10;;;;;;;29.73;15.10;;;;;;;;;;5092811;28;20637;-76
2023/01/22 01:46:38;;;;;;;33.13;15.83;;;;;;;;;;5092833;28;20295;-76
2023/01/22 01:49:06;;;;;;;29.60;15.20;;;;;;;;;;5092789;28;20223;-76
2023/01/22 01:51:34;;;;;;;31.63;15.30;;;;;;;;;;5093512;28;20298;-76
2023/01/22 01:54:02;;;;;;;27.00;15.67;;;;;;;;;;5092786;28;21294;-77
2023/01/22 01:56:31;;;;;;;28.47;14.67;;;;;;;;;;5095441;28;20220;-76
2023/01/22 01:59:01;;;;;;;27.93;15.07;;;;;;;;;;5093200;28;20227;-77
2023/01/22 02:01:30;;;;;;;27.17;13.70;;;;;;;;;;5092946;28;20241;-77
2023/01/22 02:03:58;;;;;;;27.03;14.53;;;;;;;;;;5092614;28;20665;-77
2023/01/22 02:06:25;;;;;;;28.37;15.17;;;;;;;;;;5092664;28;20326;-76
2023/01/22 02:08:53;;;;;;;27.73;14.80;;;;;;;;;;5092090;28;20735;-76
2023/01/22 02:11:22;;;;;;;28.07;14.33;;;;;;;;;;5092536;28;20251;-76
2023/01/22 02:13:52;;;;;;;30.17;14.97;;;;;;;;;;5092405;28;20296;-77
2023/01/22 02:16:19;;;;;;;28.57;14.53;;;;;;;;;;5092499;28;20286;-77
2023/01/22 02:18:48;;;;;;;31.57;14.93;;;;;;;;;;5088933;28;20330;-77
2023/01/22 02:21:28;;;;;;;31.10;15.37;;;;;;;;;;5072105;28;20282;-76
2023/01/22 02:23:55;;;;;;;24.63;14.10;;;;;;;;;;5072146;28;20258;-76
2023/01/22 02:26:23;;;;;;;28.33;13.73;;;;;;;;;;5071871;28;20318;-76
2023/01/22 02:28:50;;;;;;;27.73;14.20;;;;;;;;;;5072193;28;20286;-75
2023/01/22 02:31:17;;;;;;;27.67;13.97;;;;;;;;;;5071446;28;20402;-77
2023/01/22 02:33:44;;;;;;;26.17;13.20;;;;;;;;;;5071812;28;20225;-76
2023/01/22 02:36:12;;;;;;;27.87;14.37;;;;;;;;;;5071689;28;20195;-77
2023/01/22 02:38:40;;;;;;;27.10;14.20;;;;;;;;;;5071507;28;20200;-77
2023/01/22 02:41:08;;;;;;;27.30;13.90;;;;;;;;;;5072121;28;20258;-77
2023/01/22 02:43:35;;;;;;;25.13;14.00;;;;;;;;;;5071928;28;20239;-76
2023/01/22 02:46:02;;;;;;;25.60;13.60;;;;;;;;;;5071293;28;20318;-77
2023/01/22 02:48:29;;;;;;;31.77;16.50;;;;;;;;;;5070775;28;20224;-76
2023/01/22 02:50:57;;;;;;;29.83;15.60;;;;;;;;;;5071230;28;20775;-76
2023/01/22 02:53:24;;;;;;;31.47;15.63;;;;;;;;;;5071855;28;20634;-77
2023/01/22 02:55:52;;;;;;;26.23;14.37;;;;;;;;;;5071636;28;20227;-76
2023/01/22 02:58:19;;;;;;;31.10;14.00;;;;;;;;;;5071493;28;20292;-77
2023/01/22 03:00:47;;;;;;;30.33;13.90;;;;;;;;;;5070812;28;20291;-77
2023/01/22 03:03:15;;;;;;;27.67;14.40;;;;;;;;;;5071489;28;20291;-77
2023/01/22 03:05:44;;;;;;;28.60;13.87;;;;;;;;;;5071536;28;20237;-76
2023/01/22 03:08:12;;;;;;;29.37;14.17;;;;;;;;;;5071521;28;20208;-77
2023/01/22 03:10:39;;;;;;;26.73;14.60;;;;;;;;;;5073349;28;20333;-76
2023/01/22 03:21:21;;;;;;;26.70;13.83;;;;;;;;;;5091567;28;20207;-77
2023/01/22 03:23:49;;;;;;;29.30;14.07;;;;;;;;;;5091344;28;20230;-77
2023/01/22 03:26:17;;;;;;;26.00;14.37;;;;;;;;;;5091543;28;20272;-77
2023/01/22 03:28:45;;;;;;;28.87;15.43;;;;;;;;;;5091418;28;20241;-77
2023/01/22 03:31:13;;;;;;;30.80;15.07;;;;;;;;;;5090702;28;20198;-76
2023/01/22 03:33:41;;;;;;;27.80;14.10;;;;;;;;;;5091466;28;20218;-76
2023/01/22 03:36:09;;;;;;;27.17;13.80;;;;;;;;;;5091639;28;20731;-77
2023/01/22 03:38:36;;;;;;;24.67;13.23;;;;;;;;;;5091432;28;20624;-76
2023/01/22 03:41:08;;;;;;;27.37;14.40;;;;;;;;;;5091128;28;20222;-76
2023/01/22 03:43:35;;;;;;;28.10;14.03;;;;;;;;;;5091130;28;20235;-77
2023/01/22 03:46:06;;;;;;;28.97;13.93;;;;;;;;;;5091132;28;20284;-76
2023/01/22 03:48:33;;;;;;;26.13;13.87;;;;;;;;;;5091272;28;20293;-76
2023/01/22 03:51:07;;;;;;;25.90;13.37;;;;;;;;;;5091107;28;20249;-76
2023/01/22 03:53:35;;;;;;;26.17;13.87;;;;;;;;;;5091555;28;20234;-76
2023/01/22 03:56:03;;;;;;;30.37;14.80;;;;;;;;;;5086684;28;20192;-76
2023/01/22 03:58:30;;;;;;;27.50;14.23;;;;;;;;;;5082318;28;20223;-77
2023/01/22 04:00:57;;;;;;;27.47;14.57;;;;;;;;;;5095103;28;20735;-77
2023/01/22 04:03:27;;;;;;;28.30;14.90;;;;;;;;;;5095579;28;20286;-77
2023/01/22 04:05:55;;;;;;;29.43;14.80;;;;;;;;;;5094542;28;20222;-77
2023/01/22 04:08:22;;;;;;;28.50;14.73;;;;;;;;;;5095000;28;20222;-77
2023/01/22 04:10:49;;;;;;;28.27;14.90;;;;;;;;;;5094671;28;20195;-76
2023/01/22 04:13:17;;;;;;;31.90;15.80;;;;;;;;;;5094243;28;20282;-76
2023/01/22 04:15:44;;;;;;;29.90;15.57;;;;;;;;;;5094687;28;20745;-76
2023/01/22 04:18:12;;;;;;;30.60;15.97;;;;;;;;;;5095119;28;20196;-76
2023/01/22 04:20:41;;;;;;;28.90;15.07;;;;;;;;;;5094610;28;20295;-76
2023/01/22 04:23:08;;;;;;;28.80;14.60;;;;;;;;;;5094857;28;20226;-76
2023/01/22 04:25:36;;;;;;;27.40;14.83;;;;;;;;;;5094516;28;20762;-77
2023/01/22 04:28:03;;;;;;;29.00;15.40;;;;;;;;;;5094080;28;20298;-77
2023/01/22 04:30:30;;;;;;;28.47;14.93;;;;;;;;;;5094791;28;20234;-76
2023/01/22 04:32:57;;;;;;;29.03;15.77;;;;;;;;;;5094713;28;20238;-77
2023/01/22 04:35:25;;;;;;;28.17;15.17;;;;;;;;;;5094270;28;20236;-76
2023/01/22 04:37:53;;;;;;;28.20;14.10;;;;;;;;;;5094114;28;20195;-76
2023/01/22 04:40:21;;;;;;;29.47;14.83;;;;;;;;;;5094468;28;20287;-76
2023/01/22 04:42:48;;;;;;;29.93;15.37;;;;;;;;;;5093891;28;20226;-77
2023/01/22 04:45:15;;;;;;;31.43;15.63;;;;;;;;;;5094146;28;20255;-76
2023/01/22 04:47:43;;;;;;;29.80;15.53;;;;;;;;;;5094286;28;20241;-75
2023/01/22 04:50:14;;;;;;;30.83;14.90;;;;;;;;;;5094298;28;20298;-77
2023/01/22 04:52:42;;;;;;;31.83;15.63;;;;;;;;;;5093968;28;20241;-76
2023/01/22 04:55:11;;;;;;;25.17;14.30;;;;;;;;;;5094471;28;20636;-76
2023/01/22 04:57:38;;;;;;;29.13;14.90;;;;;;;;;;5093598;28;20216;-76
2023/01/22 05:00:06;;;;;;;28.60;15.13;;;;;;;;;;5093926;28;20287;-76
2023/01/22 05:02:33;;;;;;;32.30;16.23;;;;;;;;;;5093951;28;20195;-77
2023/01/22 05:05:01;;;;;;;34.20;16.47;;;;;;;;;;5093983;28;20220;-76
2023/01/22 05:07:28;;;;;;;32.13;14.70;;;;;;;;;;5093675;28;20288;-76
2023/01/22 05:09:55;;;;;;;28.63;14.80;;;;;;;;;;5093367;28;20692;-76
2023/01/22 05:12:24;;;;;;;26.27;15.07;;;;;;;;;;5093133;28;20284;-77
2023/01/22 05:14:51;;;;;;;27.23;14.23;;;;;;;;;;5093864;28;20290;-77
2023/01/22 05:17:18;;;;;;;29.70;15.30;;;;;;;;;;5093423;28;20230;-77
2023/01/22 05:19:45;;;;;;;27.77;14.43;;;;;;;;;;5093388;28;20287;-76
2023/01/22 05:22:13;;;;;;;29.17;15.30;;;;;;;;;;5093316;28;20244;-77
2023/01/22 05:24:40;;;;;;;28.93;15.47;;;;;;;;;;5093500;28;20222;-77
2023/01/22 05:27:07;;;;;;;30.07;15.60;;;;;;;;;;5093355;28;20323;-76
2023/01/22 05:29:35;;;;;;;32.23;16.37;;;;;;;;;;5093377;28;20229;-76
2023/01/22 05:32:03;;;;;;;29.13;14.80;;;;;;;;;;5093158;28;20194;-76
2023/01/22 05:34:30;;;;;;;30.83;15.00;;;;;;;;;;5093654;28;20282;-76
2023/01/22 05:36:57;;;;;;;29.10;15.33;;;;;;;;;;5093335;28;20286;-77
2023/01/22 05:39:24;;;;;;;28.70;14.17;;;;;;;;;;5093295;28;20227;-76
2023/01/22 05:41:52;;;;;;;29.63;14.60;;;;;;;;;;5092797;28;20219;-76
2023/01/22 05:44:19;;;;;;;28.23;14.43;;;;;;;;;;5093186;28;20230;-76
2023/01/22 05:46:48;;;;;;;25.93;14.73;;;;;;;;;;5092740;28;20323;-75
2023/01/22 05:49:15;;;;;;;29.53;15.40;;;;;;;;;;5092908;28;20222;-77
2023/01/22 05:51:42;;;;;;;27.83;14.57;;;;;;;;;;5093175;28;20223;-76
2023/01/22 05:54:09;;;;;;;28.40;14.90;;;;;;;;;;5092782;28;20293;-75
2023/01/22 05:56:36;;;;;;;31.87;14.83;;;;;;;;;;5092654;28;20196;-76
2023/01/22 05:59:04;;;;;;;29.47;14.70;;;;;;;;;;5092958;28;20199;-76
2023/01/22 06:01:31;;;;;;;29.40;15.43;;;;;;;;;;5093053;28;20289;-76
2023/01/22 06:03:59;;;;;;;27.80;15.00;;;;;;;;;;5093238;28;20234;-76
2023/01/22 06:06:26;;;;;;;33.57;15.70;;;;;;;;;;5092902;28;20234;-76
2023/01/22 06:08:54;;;;;;;31.53;15.60;;;;;;;;;;5091910;28;20263;-77
2023/01/22 06:11:21;;;;;;;32.13;15.20;;;;;;;;;;5084704;28;20203;-77
2023/01/22 06:13:48;;;;;;;32.90;15.60;;;;;;;;;;5072789;28;20298;-76
2023/01/22 06:16:15;;;;;;;28.90;15.50;;;;;;;;;;5072093;28;20233;-76
2023/01/22 06:18:42;;;;;;;30.07;14.83;;;;;;;;;;5071655;28;20755;-76
2023/01/22 06:21:11;;;;;;;30.83;15.20;;;;;;;;;;5071966;28;20307;-76
2023/01/22 06:23:38;;;;;;;29.77;15.33;;;;;;;;;;5071768;28;20390;-76
2023/01/22 06:26:05;;;;;;;31.97;14.83;;;;;;;;;;5071949;28;20265;-76
2023/01/22 06:28:33;;;;;;;29.20;14.83;;;;;;;;;;5072012;28;20227;-76
2023/01/22 06:31:04;;;;;;;31.53;15.27;;;;;;;;;;5072176;28;20195;-76
2023/01/22 06:33:31;;;;;;;30.67;14.37;;;;;;;;;;5072311;28;20191;-77
2023/01/22 06:35:58;;;;;;;24.90;14.37;;;;;;;;;;5071730;28;20783;-76
2023/01/22 06:38:27;;;;;;;28.77;14.20;;;;;;;;;;5071700;28;20204;-76
2023/01/22 06:40:54;;;;;;;30.40;14.17;;;;;;;;;;5071913;28;20275;-77
2023/01/22 06:43:21;;;;;;;29.50;13.97;;;;;;;;;;5071734;28;20235;-76
2023/01/22 06:45:49;;;;;;;28.90;14.53;;;;;;;;;;5071839;28;20224;-76
2023/01/22 06:48:16;;;;;;;32.93;14.87;;;;;;;;;;5071818;28;20282;-76
2023/01/22 06:50:43;;;;;;;31.47;14.93;;;;;;;;;;5071589;28;20203;-75
2023/01/22 06:53:11;;;;;;;28.60;14.77;;;;;;;;;;5071244;28;20295;-76
2023/01/22 06:55:39;;;;;;;29.33;14.53;;;;;;;;;;5071840;28;20282;-76
2023/01/22 06:58:07;;;;;;;27.23;13.70;;;;;;;;;;5071629;28;20261;-76
2023/01/22 07:00:34;;;;;;;31.07;14.90;;;;;;;;;;5071296;28;20299;-76
2023/01/22 07:03:01;;;;;;;26.73;14.20;;;;;;;;;;5071563;28;20278;-77
2023/01/22 07:05:28;;;;;;;28.90;14.50;;;;;;;;;;5071721;28;20196;-77
2023/01/22 07:07:55;;;;;;;28.33;14.70;;;;;;;;;;5070738;28;20327;-77
2023/01/22 07:10:23;;;;;;;28.97;14.50;;;;;;;;;;5071229;28;20255;-77
2023/01/22 07:12:54;;;;;;;28.23;13.97;;;;;;;;;;5071110;28;20286;-76
2023/01/22 07:15:22;;;;;;;29.60;14.40;;;;;;;;;;5071329;28;20908;-77
2023/01/22 07:17:51;;;;;;;28.77;14.53;;;;;;;;;;5071452;28;20312;-76
2023/01/22 07:20:18;;;;;;;28.13;14.00;;;;;;;;;;5071230;28;20199;-77
2023/01/22 07:22:45;;;;;;;29.83;14.83;;;;;;;;;;5070678;28;20226;-78
2023/01/22 07:25:12;;;;;;;28.40;14.43;;;;;;;;;;5071117;28;20227;-77
2023/01/22 07:27:40;;;;;;;32.40;15.23;;;;;;;;;;5071035;28;20318;-77
2023/01/22 07:30:09;;;;;;;32.77;15.40;;;;;;;;;;5071117;28;20290;-78
2023/01/22 07:32:36;;;;;;;31.37;14.83;;;;;;;;;;5071012;28;20291;-76
2023/01/22 07:35:04;;;;;;;28.73;14.63;;;;;;;;;;5076927;28;20786;-77
2023/01/22 07:37:31;;;;;;;27.90;15.30;;;;;;;;;;5077734;28;20282;-77
2023/01/22 07:39:58;;;;;;;27.10;14.53;;;;;;;;;;5077789;28;20196;-78
2023/01/22 07:42:25;;;;;;;30.07;14.20;;;;;;;;;;5078065;28;20291;-77
2023/01/22 07:44:52;;;;;;;34.17;15.07;;;;;;;;;;5077602;28;20226;-77
2023/01/22 07:47:21;;;;;;;33.47;15.57;;;;;;;;;;5077952;28;20318;-78
2023/01/22 07:49:48;;;;;;;30.50;15.13;;;;;;;;;;5077787;28;20196;-77
2023/01/22 07:52:15;;;;;;;29.03;15.20;;;;;;;;;;5077462;28;20226;-77
2023/01/22 07:54:42;;;;;;;30.20;14.60;;;;;;;;;;5077659;28;20287;-77
2023/01/22 07:57:14;;;;;;;28.83;14.97;;;;;;;;;;5077595;28;20235;-76
2023/01/22 07:59:41;;;;;;;27.47;14.00;;;;;;;;;;5077765;28;20684;-77
2023/01/22 08:02:11;;;;;;;26.87;13.77;;;;;;;;;;5077420;28;20219;-77
2023/01/22 08:04:39;;;;;;;29.37;15.47;;;;;;;;;;5077079;28;20238;-77
2023/01/22 08:07:06;;;;;;;33.93;16.37;;;;;;;;;;5077463;28;20314;-77
2023/01/22 08:09:36;;;;;;;37.57;18.77;;;;;;;;;;5077537;28;20323;-77
2023/01/22 08:12:04;;;;;;;39.70;19.87;;;;;;;;;;5077411;28;20199;-77
2023/01/22 08:14:32;;;;;;;39.67;20.00;;;;;;;;;;5080982;28;20590;-81
2023/01/22 08:16:59;;;;;;;39.83;19.30;;;;;;;;;;5093555;28;20286;-81
2023/01/22 08:19:28;;;;;;;36.23;18.70;;;;;;;;;;5076856;28;20224;-79
2023/01/22 08:21:56;;;;;;;28.40;15.80;;;;;;;;;;5077489;28;20218;-79
2023/01/22 08:24:24;;;;;;;25.23;14.33;;;;;;;;;;5077248;28;20223;-79
2023/01/22 08:26:51;;;;;;;24.60;13.70;;;;;;;;;;5077394;28;20255;-81
2023/01/22 08:29:18;;;;;;;21.27;13.07;;;;;;;;;;5077377;28;20292;-79
2023/01/22 08:31:45;;;;;;;21.93;13.43;;;;;;;;;;5077175;28;20289;-80
2023/01/22 08:34:12;;;;;;;20.53;12.23;;;;;;;;;;5076683;28;20203;-79
2023/01/22 08:36:39;;;;;;;20.97;12.90;;;;;;;;;;5076971;28;20664;-80
2023/01/22 08:39:09;;;;;;;21.97;12.83;;;;;;;;;;5077417;28;20301;-79
2023/01/22 08:41:36;;;;;;;18.57;12.30;;;;;;;;;;5077083;28;20200;-79
2023/01/22 08:44:04;;;;;;;21.67;12.00;;;;;;;;;;5077253;28;20234;-80
2023/01/22 08:46:31;;;;;;;21.17;12.60;;;;;;;;;;5074083;28;20289;-81
2023/01/22 08:48:58;;;;;;;21.43;12.23;;;;;;;;;;5073401;28;20633;-84
2023/01/22 08:51:26;;;;;;;18.97;12.57;;;;;;;;;;5074300;28;20285;-84
2023/01/22 08:53:53;;;;;;;18.33;12.87;;;;;;;;;;5074286;28;20295;-84
2023/01/22 08:56:22;;;;;;;20.83;13.83;;;;;;;;;;5073968;28;20238;-85
2023/01/22 08:58:50;;;;;;;18.67;13.17;;;;;;;;;;5074087;28;20284;-84
2023/01/22 09:01:17;;;;;;;19.83;13.67;;;;;;;;;;5074288;28;20195;-85
2023/01/22 09:03:45;;;;;;;20.83;14.30;;;;;;;;;;5073817;28;20705;-85
2023/01/22 09:06:12;;;;;;;21.20;13.83;;;;;;;;;;5073634;28;20671;-84
2023/01/22 09:08:39;;;;;;;18.77;13.47;;;;;;;;;;5073799;28;20332;-85
2023/01/22 09:11:07;;;;;;;24.03;14.57;;;;;;;;;;5073747;28;20252;-85
2023/01/22 09:13:35;;;;;;;23.07;15.40;;;;;;;;;;5073977;28;20286;-83
2023/01/22 09:16:04;;;;;;;25.07;15.40;;;;;;;;;;5072192;28;20233;-84
2023/01/22 09:18:32;;;;;;;22.10;14.87;;;;;;;;;;5073526;28;20208;-81
2023/01/22 09:20:59;;;;;;;21.43;14.53;;;;;;;;;;5073507;28;20242;-84
2023/01/22 09:23:26;;;;;;;21.03;14.93;;;;;;;;;;5073614;28;20226;-83
2023/01/22 09:25:53;;;;;;;24.07;15.53;;;;;;;;;;5080157;28;20230;-83
2023/01/22 09:28:20;;;;;;;20.77;15.17;;;;;;;;;;5087366;28;20690;-83
2023/01/22 09:30:49;;;;;;;22.50;15.40;;;;;;;;;;5073184;28;20286;-83
2023/01/22 09:33:16;;;;;;;22.90;15.87;;;;;;;;;;5072770;28;20731;-83
2023/01/22 09:35:43;;;;;;;21.07;15.40;;;;;;;;;;5079073;28;20195;-84
2023/01/22 09:38:13;;;;;;;26.40;17.40;;;;;;;;;;5077122;28;20226;-84
2023/01/22 09:40:43;;;;;;;23.63;17.33;;;;;;;;;;5087628;28;20199;-84
2023/01/22 09:43:19;;;;;;;30.90;21.43;;;;;;;;;;5091454;28;20297;-84
2023/01/22 09:45:46;;;;;;;26.87;18.53;;;;;;;;;;5073976;28;20277;-84
2023/01/22 09:48:17;;;;;;;29.60;19.53;;;;;;;;;;5085076;28;20313;-84
2023/01/22 09:50:45;;;;;;;26.47;19.27;;;;;;;;;;5085781;28;20289;-84
2023/01/22 09:53:14;;;;;;;26.70;19.20;;;;;;;;;;5081662;28;20289;-83
2023/01/22 09:55:43;;;;;;;26.87;18.23;;;;;;;;;;5087106;28;20295;-82
2023/01/22 09:58:14;;;;;;;26.37;17.07;;;;;;;;;;5081380;28;20328;-83
2023/01/22 10:00:43;;;;;;;26.20;18.10;;;;;;;;;;5077559;28;20274;-86
2023/01/22 10:03:13;;;;;;;29.73;19.70;;;;;;;;;;5080735;28;20198;-82
2023/01/22 10:05:42;;;;;;;38.83;28.27;;;;;;;;;;5081782;28;20274;-85
2023/01/22 10:08:12;;;;;;;45.83;30.77;;;;;;;;;;5081052;28;20220;-83
2023/01/22 10:10:39;;;;;;;41.13;29.37;;;;;;;;;;5080333;28;21097;-88
2023/01/22 10:13:11;;;;;;;31.03;22.80;;;;;;;;;;5079716;28;20241;-84
2023/01/22 10:15:38;;;;;;;30.87;23.00;;;;;;;;;;5079561;28;20277;-84
2023/01/22 10:18:13;;;;;;;27.47;19.10;;;;;;;;;;5085712;28;20198;-86
2023/01/22 10:20:41;;;;;;;54.40;46.13;;;;;;;;;;5084389;28;20288;-86
2023/01/22 10:23:12;;;;;;;32.33;22.90;;;;;;;;;;5082157;28;20198;-85
2023/01/22 10:25:40;;;;;;;27.57;19.43;;;;;;;;;;5078643;28;20293;-85
2023/01/22 10:28:07;;;;;;;36.57;26.33;;;;;;;;;;5083194;28;20784;-86
2023/01/22 10:30:34;;;;;;;46.17;32.20;;;;;;;;;;5085164;28;20282;-85
2023/01/22 10:33:02;;;;;;;36.63;26.33;;;;;;;;;;5084462;28;20205;-86
2023/01/22 10:35:30;;;;;;;26.50;18.90;;;;;;;;;;5057244;28;20281;-85
2023/01/22 10:38:00;;;;;;;32.10;20.83;;;;;;;;;;5092051;28;20209;-86
2023/01/22 10:40:29;;;;;;;52.70;33.07;;;;;;;;;;5084273;28;20221;-83
2023/01/22 10:43:04;;;;;;;71.10;47.37;;;;;;;;;;5092316;28;20197;-85
2023/01/22 10:45:31;;;;;;;56.90;37.33;;;;;;;;;;5084383;28;20745;-82
2023/01/22 10:48:05;;;;;;;53.40;33.03;;;;;;;;;;5091832;28;20229;-84
2023/01/22 10:50:33;;;;;;;81.77;49.60;;;;;;;;;;5091145;28;20662;-84
2023/01/22 10:53:03;;;;;;;49.83;31.10;;;;;;;;;;5091967;28;20226;-83
2023/01/22 10:55:32;;;;;;;66.70;41.47;;;;;;;;;;5091508;28;20308;-83
2023/01/22 10:58:01;;;;;;;43.00;28.13;;;;;;;;;;5092859;28;20722;-84
2023/01/22 11:00:32;;;;;;;102.77;63.57;;;;;;;;;;5092290;28;20200;-84
2023/01/22 11:03:00;;;;;;;37.17;27.30;;;;;;;;;;5103430;28;20232;-84
2023/01/22 11:05:28;;;;;;;25.33;17.57;;;;;;;;;;5091484;28;20285;-85
2023/01/22 11:07:58;;;;;;;26.33;18.30;;;;;;;;;;5091613;28;20264;-85
2023/01/22 11:10:28;;;;;;;124.60;101.90;;;;;;;;;;5090809;28;20261;-84
2023/01/22 11:12:58;;;;;;;39.97;29.20;;;;;;;;;;5071826;28;20301;-85
2023/01/22 11:15:29;;;;;;;22.50;17.17;;;;;;;;;;5071330;28;20655;-85
2023/01/22 11:17:57;;;;;;;25.00;17.87;;;;;;;;;;5053666;28;20221;-85
2023/01/22 11:20:26;;;;;;;25.70;20.03;;;;;;;;;;5071594;28;20198;-85
2023/01/22 11:23:00;;;;;;;22.67;16.97;;;;;;;;;;5071636;28;20282;-84
2023/01/22 11:25:35;;;;;;;24.33;16.70;;;;;;;;;;5072067;28;20223;-84
2023/01/22 11:28:08;;;;;;;21.77;15.23;;;;;;;;;;5071981;28;20698;-84
2023/01/22 11:30:56;;;;;;;19.93;13.87;;;;;;;;;;5071690;28;20233;-85
2023/01/22 11:33:33;;;;;;;19.80;13.70;;;;;;;;;;5067019;28;20282;-84
2023/01/22 11:36:02;;;;;;;23.20;16.63;;;;;;;;;;5071350;28;20288;-84
2023/01/22 11:38:35;;;;;;;21.47;14.77;;;;;;;;;;5071214;28;20188;-83
2023/01/22 11:41:09;;;;;;;21.07;14.43;;;;;;;;;;5071930;28;20229;-84
2023/01/22 11:43:41;;;;;;;19.20;13.27;;;;;;;;;;5070948;28;20229;-84
2023/01/22 11:46:14;;;;;;;19.87;13.37;;;;;;;;;;5071707;28;20279;-85
2023/01/22 11:48:51;;;;;;;21.20;14.37;;;;;;;;;;5071478;28;20254;-85
2023/01/22 11:51:24;;;;;;;21.37;14.10;;;;;;;;;;5071123;28;20822;-85
2023/01/22 11:54:05;;;;;;;21.30;13.70;;;;;;;;;;5071313;28;20195;-85
2023/01/22 11:56:41;;;;;;;20.43;13.73;;;;;;;;;;5071328;28;20231;-85
2023/01/22 11:59:10;;;;;;;21.07;13.87;;;;;;;;;;5071098;28;20233;-84
2023/01/22 12:01:46;;;;;;;22.30;15.10;;;;;;;;;;5071402;28;20249;-85
2023/01/22 12:04:34;;;;;;;20.33;13.93;;;;;;;;;;5071600;28;20191;-85
2023/01/22 12:07:10;;;;;;;22.60;15.00;;;;;;;;;;5066105;28;20227;-85
2023/01/22 12:09:42;;;;;;;22.67;13.70;;;;;;;;;;5070831;28;20314;-85
2023/01/22 12:12:16;;;;;;;20.90;13.93;;;;;;;;;;5085318;28;20710;-85
2023/01/22 12:14:50;;;;;;;21.83;14.00;;;;;;;;;;5091292;28;20438;-86
2023/01/22 12:17:23;;;;;;;23.77;14.47;;;;;;;;;;5091305;28;20221;-84
2023/01/22 12:19:59;;;;;;;20.97;13.80;;;;;;;;;;5092410;28;20240;-83
2023/01/22 12:22:31;;;;;;;22.37;14.93;;;;;;;;;;5095194;28;20691;-84
2023/01/22 12:25:01;;;;;;;20.83;14.30;;;;;;;;;;5094781;28;20733;-84
2023/01/22 12:27:32;;;;;;;19.73;13.97;;;;;;;;;;5094346;28;20738;-84
2023/01/22 12:30:03;;;;;;;19.13;13.10;;;;;;;;;;5094986;28;20203;-84
2023/01/22 12:32:30;;;;;;;20.80;13.40;;;;;;;;;;5094752;28;20195;-85
2023/01/22 12:35:01;;;;;;;18.97;12.70;;;;;;;;;;5095056;28;20232;-84
2023/01/22 12:37:32;;;;;;;19.50;12.70;;;;;;;;;;5094627;28;20286;-84
2023/01/22 12:40:06;;;;;;;20.73;13.00;;;;;;;;;;5094796;28;20230;-84
2023/01/22 12:42:37;;;;;;;21.10;12.97;;;;;;;;;;5094647;28;20206;-84
2023/01/22 12:45:07;;;;;;;19.23;13.30;;;;;;;;;;5094418;28;20218;-84
2023/01/22 12:47:37;;;;;;;19.40;12.07;;;;;;;;;;5094438;28;20331;-84
2023/01/22 12:50:16;;;;;;;21.97;13.00;;;;;;;;;;5094578;28;20294;-83
2023/01/22 12:52:43;;;;;;;20.23;13.20;;;;;;;;;;5094335;28;20229;-84
2023/01/22 12:55:24;;;;;;;17.77;12.47;;;;;;;;;;5093852;28;20773;-84
2023/01/22 12:57:52;;;;;;;19.83;13.33;;;;;;;;;;5094341;28;20195;-83
2023/01/22 13:00:29;;;;;;;18.90;13.27;;;;;;;;;;5093978;28;20288;-83
2023/01/22 13:02:56;;;;;;;19.63;13.00;;;;;;;;;;5094367;28;20617;-84
2023/01/22 13:05:37;;;;;;;19.63;12.97;;;;;;;;;;5093949;28;20755;-84
2023/01/22 13:08:05;;;;;;;20.40;13.43;;;;;;;;;;5094064;28;20724;-83
2023/01/22 13:10:33;;;;;;;21.90;13.87;;;;;;;;;;5092169;28;20322;-84
2023/01/22 13:13:04;;;;;;;19.80;13.17;;;;;;;;;;5074082;28;20199;-83
2023/01/22 13:15:33;;;;;;;18.73;12.60;;;;;;;;;;5073888;28;20223;-84
2023/01/22 13:18:02;;;;;;;18.63;12.63;;;;;;;;;;5074034;28;20290;-83
2023/01/22 13:20:30;;;;;;;20.33;13.30;;;;;;;;;;5073329;28;20286;-83
2023/01/22 13:22:58;;;;;;;18.33;12.10;;;;;;;;;;5073784;28;20215;-84
2023/01/22 13:25:26;;;;;;;18.77;12.70;;;;;;;;;;5073260;28;20202;-83
2023/01/22 13:27:53;;;;;;;20.93;12.90;;;;;;;;;;5073515;28;20286;-83
2023/01/22 13:30:25;;;;;;;20.97;13.47;;;;;;;;;;5073239;28;20731;-83
2023/01/22 13:33:02;;;;;;;19.57;12.97;;;;;;;;;;5072734;28;20202;-83
2023/01/22 13:35:30;;;;;;;19.27;13.17;;;;;;;;;;5073239;28;20289;-83
2023/01/22 13:37:57;;;;;;;19.40;13.70;;;;;;;;;;5073162;28;20314;-83
2023/01/22 13:40:25;;;;;;;18.87;13.37;;;;;;;;;;5072786;28;20202;-83
2023/01/22 13:42:53;;;;;;;18.93;12.93;;;;;;;;;;5073100;28;20234;-83
2023/01/22 13:45:24;;;;;;;20.40;13.83;;;;;;;;;;5072960;28;20744;-83
2023/01/22 13:47:53;;;;;;;19.83;13.30;;;;;;;;;;5073129;28;20647;-83
2023/01/22 13:50:22;;;;;;;19.70;13.30;;;;;;;;;;5073229;28;20192;-83
2023/01/22 13:52:50;;;;;;;16.83;12.53;;;;;;;;;;5073184;28;20223;-83
2023/01/22 13:55:18;;;;;;;19.80;13.17;;;;;;;;;;5072658;28;20203;-83
2023/01/22 13:57:45;;;;;;;17.73;12.30;;;;;;;;;;5072948;28;20241;-83
2023/01/22 14:00:25;;;;;;;19.43;12.70;;;;;;;;;;5073038;28;20226;-84
2023/01/22 14:02:52;;;;;;;19.43;13.03;;;;;;;;;;5072864;28;20645;-83
2023/01/22 14:05:21;;;;;;;23.23;14.53;;;;;;;;;;5072314;28;20233;-83
2023/01/22 14:07:48;;;;;;;18.07;12.70;;;;;;;;;;5072106;28;20293;-83
2023/01/22 14:10:17;;;;;;;19.77;12.97;;;;;;;;;;5072882;28;20239;-82
2023/01/22 14:12:45;;;;;;;20.33;12.07;;;;;;;;;;5092149;28;20230;-82
2023/01/22 14:15:15;;;;;;;21.30;12.63;;;;;;;;;;5092593;28;20281;-83
2023/01/22 14:17:44;;;;;;;19.80;12.43;;;;;;;;;;5093263;28;20282;-83
2023/01/22 14:20:12;;;;;;;19.07;12.80;;;;;;;;;;5092690;28;20293;-83
2023/01/22 14:22:39;;;;;;;17.50;12.60;;;;;;;;;;5092422;28;20233;-83
2023/01/22 14:25:08;;;;;;;17.20;12.10;;;;;;;;;;5093138;28;20191;-83
2023/01/22 14:27:42;;;;;;;18.23;12.07;;;;;;;;;;5092766;28;20633;-82
2023/01/22 14:30:13;;;;;;;17.27;11.87;;;;;;;;;;5092781;28;20308;-83
2023/01/22 14:32:40;;;;;;;19.47;11.70;;;;;;;;;;5092690;28;20229;-82